createdAt,value
2022-11-04T00:01:52.095Z,5.47
2022-11-04T00:04:19.887Z,5.18
2022-11-04T00:06:47.187Z,3.78
2022-11-04T00:09:17.441Z,4.35
2022-11-04T00:12:02.977Z,4.22
2022-11-04T00:14:30.771Z,3.97
2022-11-04T00:17:16.984Z,3.85
2022-11-04T00:20:02.913Z,3.63
2022-11-04T00:22:48.631Z,3.70
2022-11-04T00:25:34.643Z,3.72
2022-11-04T00:28:29.611Z,2.85
2022-11-04T00:30:57.839Z,2.92
2022-11-04T00:33:28.096Z,3.85
2022-11-04T00:35:56.751Z,2.40
2022-11-04T00:38:24.616Z,3.50
2022-11-04T00:40:51.710Z,2.55
2022-11-04T00:43:18.799Z,3.13
2022-11-04T00:45:46.588Z,2.85
2022-11-04T00:48:13.687Z,3.33
2022-11-04T00:50:40.823Z,2.17
2022-11-04T00:53:08.240Z,3.10
2022-11-04T00:55:35.811Z,3.25
2022-11-04T00:58:02.973Z,2.83
2022-11-04T01:00:30.024Z,1.77
2022-11-04T01:02:57.626Z,2.00
2022-11-04T01:05:24.680Z,2.58
2022-11-04T01:07:51.754Z,3.22
2022-11-04T01:10:18.861Z,2.72
2022-11-04T01:12:45.873Z,2.33
2022-11-04T01:15:12.916Z,2.78
2022-11-04T01:17:39.969Z,2.47
2022-11-04T01:20:07.178Z,2.55
2022-11-04T01:22:34.171Z,2.55
2022-11-04T01:25:01.210Z,2.67
2022-11-04T01:27:28.259Z,2.13
2022-11-04T01:29:55.248Z,2.45
2022-11-04T01:32:22.322Z,2.42
2022-11-04T01:34:49.385Z,2.22
2022-11-04T01:37:16.439Z,2.63
2022-11-04T01:39:43.989Z,2.10
2022-11-04T01:42:13.515Z,1.80
2022-11-04T01:44:43.290Z,2.38
2022-11-04T01:47:18.169Z,2.28
2022-11-04T01:49:47.233Z,1.58
2022-11-04T01:52:17.700Z,1.50
2022-11-04T01:54:46.835Z,1.50
2022-11-04T01:57:16.573Z,1.63
2022-11-04T01:59:43.675Z,1.70
2022-11-04T02:02:11.034Z,1.80
2022-11-04T02:04:39.754Z,1.63
2022-11-04T02:07:08.552Z,1.33
2022-11-04T02:09:38.207Z,1.40
2022-11-04T02:12:24.184Z,1.05
2022-11-04T02:14:51.922Z,1.40
2022-11-04T02:17:27.542Z,1.35
2022-11-04T02:20:12.250Z,1.55
2022-11-04T02:22:58.116Z,1.35
2022-11-04T02:25:25.096Z,1.35
2022-11-04T02:28:10.983Z,1.33
2022-11-04T02:30:45.495Z,1.27
2022-11-04T02:33:24.683Z,1.20
2022-11-04T02:36:11.390Z,1.50
2022-11-04T02:38:44.194Z,1.38
2022-11-04T02:41:34.288Z,1.50
2022-11-04T02:44:01.328Z,1.70
2022-11-04T02:46:31.060Z,0.90
2022-11-04T02:49:03.966Z,1.05
2022-11-04T02:51:38.040Z,1.20
2022-11-04T02:54:13.988Z,1.10
2022-11-04T02:56:46.634Z,1.27
2022-11-04T02:59:16.713Z,1.17
2022-11-04T03:01:46.491Z,1.25
2022-11-04T03:04:19.402Z,1.40
2022-11-04T03:06:47.981Z,1.10
2022-11-04T03:09:15.835Z,1.25
2022-11-04T03:11:45.080Z,1.50
2022-11-04T03:14:19.028Z,1.00
2022-11-04T03:16:57.455Z,1.23
2022-11-04T03:19:35.465Z,1.15
2022-11-04T03:22:08.012Z,1.10
2022-11-04T03:24:35.103Z,1.05
2022-11-04T03:27:05.509Z,1.05
2022-11-04T03:29:41.188Z,1.17
2022-11-04T03:32:14.570Z,1.20
2022-11-04T03:34:41.678Z,1.00
2022-11-04T03:37:08.837Z,1.25
2022-11-04T03:39:35.854Z,0.80
2022-11-04T03:42:19.932Z,0.95
2022-11-04T03:47:14.290Z,0.95
2022-11-04T03:49:41.319Z,1.30
2022-11-04T03:52:08.529Z,1.00
2022-11-04T03:54:36.647Z,0.70
2022-11-04T03:57:14.971Z,1.30
2022-11-04T03:59:41.928Z,0.80
2022-11-04T04:02:15.971Z,1.13
2022-11-04T04:04:52.967Z,1.00
2022-11-04T04:07:24.201Z,1.27
2022-11-04T04:10:01.975Z,1.13
2022-11-04T04:12:35.937Z,0.90
2022-11-04T04:15:11.366Z,1.00
2022-11-04T04:17:40.718Z,0.90
2022-11-04T04:20:11.541Z,1.13
2022-11-04T04:22:44.222Z,1.00
2022-11-04T04:25:31.039Z,0.85
2022-11-04T04:27:58.773Z,1.08
2022-11-04T04:30:25.891Z,1.10
2022-11-04T04:32:54.633Z,0.95
2022-11-04T04:35:41.902Z,0.90
2022-11-04T04:38:32.588Z,1.00
2022-11-04T04:41:38.425Z,0.95
2022-11-04T04:44:30.344Z,1.23
2022-11-04T04:46:58.609Z,1.15
2022-11-04T04:49:34.844Z,0.98
2022-11-04T04:52:02.734Z,1.20
2022-11-04T04:54:29.815Z,0.93
2022-11-04T04:56:56.862Z,1.30
2022-11-04T04:59:23.869Z,1.10
2022-11-04T05:01:50.947Z,1.30
2022-11-04T05:04:18.007Z,1.00
2022-11-04T05:06:45.073Z,0.90
2022-11-04T05:09:12.061Z,1.05
2022-11-04T05:11:39.032Z,0.90
2022-11-04T05:14:06.412Z,1.00
2022-11-04T05:16:37.993Z,0.90
2022-11-04T05:19:07.496Z,0.80
2022-11-04T05:21:34.508Z,0.95
2022-11-04T05:24:01.488Z,0.70
2022-11-04T05:26:28.940Z,1.35
2022-11-04T05:28:55.971Z,1.00
2022-11-04T05:31:23.252Z,1.02
2022-11-04T05:33:50.283Z,1.38
2022-11-04T05:36:17.726Z,0.80
2022-11-04T05:38:45.127Z,1.23
2022-11-04T05:41:25.536Z,0.85
2022-11-04T05:43:53.481Z,0.85
2022-11-04T05:46:20.811Z,0.90
2022-11-04T05:48:47.805Z,0.82
2022-11-04T05:51:15.865Z,1.20
2022-11-04T05:53:43.011Z,0.80
2022-11-04T05:56:10.328Z,0.95
2022-11-04T05:58:37.336Z,1.17
2022-11-04T06:01:23.156Z,1.20
2022-11-04T06:03:50.296Z,1.30
2022-11-04T06:06:17.366Z,1.10
2022-11-04T06:08:45.412Z,1.45
2022-11-04T06:11:12.612Z,1.45
2022-11-04T06:13:39.765Z,1.42
2022-11-04T06:16:07.252Z,1.23
2022-11-04T06:18:34.246Z,1.38
2022-11-04T06:21:12.194Z,1.17
2022-11-04T06:23:39.597Z,1.05
2022-11-04T06:26:07.047Z,1.13
2022-11-04T06:28:34.308Z,1.55
2022-11-04T06:31:02.316Z,1.33
2022-11-04T06:33:35.407Z,0.98
2022-11-04T06:36:04.884Z,1.48
2022-11-04T06:38:32.696Z,1.23
2022-11-04T06:40:59.837Z,1.40
2022-11-04T06:43:26.999Z,1.42
2022-11-04T06:45:54.501Z,1.83
2022-11-04T06:48:21.599Z,1.67
2022-11-04T06:50:48.787Z,1.77
2022-11-04T06:53:15.794Z,1.60
2022-11-04T06:55:42.919Z,1.58
2022-11-04T06:58:10.149Z,1.50
2022-11-04T07:00:37.253Z,1.85
2022-11-04T07:03:04.307Z,1.33
2022-11-04T07:05:33.425Z,1.10
2022-11-04T07:08:00.428Z,1.33
2022-11-04T07:10:27.522Z,1.63
2022-11-04T07:12:55.074Z,1.92
2022-11-04T07:15:27.252Z,1.42
2022-11-04T07:17:54.701Z,2.08
2022-11-04T07:20:21.713Z,1.65
2022-11-04T07:22:48.724Z,1.25
2022-11-04T07:25:15.782Z,1.65
2022-11-04T07:27:42.802Z,1.38
2022-11-04T07:30:10.157Z,1.40
2022-11-04T07:32:37.166Z,2.10
2022-11-04T07:35:04.594Z,1.73
2022-11-04T07:37:31.606Z,1.88
2022-11-04T07:39:58.653Z,1.50
2022-11-04T07:42:25.653Z,1.90
2022-11-04T07:44:52.735Z,1.55
2022-11-04T07:47:19.731Z,1.80
2022-11-04T07:49:46.756Z,1.63
2022-11-04T07:52:13.939Z,1.85
2022-11-04T07:54:40.925Z,1.65
2022-11-04T07:57:08.394Z,1.52
2022-11-04T07:59:35.401Z,1.80
2022-11-04T08:02:02.535Z,1.85
2022-11-04T08:04:29.581Z,2.05
2022-11-04T08:06:56.600Z,1.90
2022-11-04T08:09:24.128Z,2.20
2022-11-04T08:11:51.153Z,1.77
2022-11-04T08:14:18.154Z,1.50
2022-11-04T08:16:45.280Z,1.50
2022-11-04T08:19:12.314Z,1.50
2022-11-04T08:21:39.313Z,1.45
2022-11-04T08:24:06.485Z,1.55
2022-11-04T08:26:33.528Z,1.55
2022-11-04T08:29:02.305Z,2.30
2022-11-04T08:31:30.470Z,1.35
2022-11-04T08:33:57.839Z,2.00
2022-11-04T08:36:26.439Z,1.67
2022-11-04T08:38:54.081Z,2.00
2022-11-04T08:41:22.551Z,2.00
2022-11-04T08:43:49.725Z,2.00
2022-11-04T08:46:17.013Z,1.52
2022-11-04T08:48:44.618Z,1.35
2022-11-04T08:51:14.160Z,1.65
2022-11-04T08:53:41.443Z,1.23
2022-11-04T08:56:12.231Z,1.75
2022-11-04T08:58:39.206Z,1.88
2022-11-04T09:01:06.941Z,1.20
2022-11-04T09:03:34.831Z,1.55
2022-11-04T09:06:02.078Z,1.85
2022-11-04T09:08:29.089Z,2.00
2022-11-04T09:10:56.088Z,1.95
2022-11-04T09:13:23.082Z,1.98
2022-11-04T09:15:50.226Z,1.55
2022-11-04T09:18:17.333Z,1.70
2022-11-04T09:20:44.809Z,1.73
2022-11-04T09:23:12.179Z,1.90
2022-11-04T09:25:39.388Z,1.50
2022-11-04T09:28:06.415Z,1.80
2022-11-04T09:30:33.552Z,1.65
2022-11-04T09:33:00.647Z,2.45
2022-11-04T09:35:27.837Z,14.95
2022-11-04T09:37:55.006Z,4.25
2022-11-04T09:40:24.048Z,2.00
2022-11-04T09:42:54.032Z,1.92
2022-11-04T09:45:23.974Z,2.00
2022-11-04T09:47:52.102Z,1.23
2022-11-04T09:50:27.324Z,1.20
2022-11-04T09:53:10.082Z,1.40
2022-11-04T09:55:45.841Z,1.10
2022-11-04T09:58:14.753Z,1.45
2022-11-04T10:00:45.043Z,1.15
2022-11-04T10:03:12.532Z,1.73
2022-11-04T10:05:53.730Z,1.98
2022-11-04T10:08:38.095Z,2.65
2022-11-04T10:11:11.421Z,2.22
2022-11-04T10:13:56.450Z,2.40
2022-11-04T10:16:23.865Z,2.75
2022-11-04T10:19:20.124Z,2.75
2022-11-04T10:21:47.751Z,2.50
2022-11-04T10:24:30.045Z,2.05
2022-11-04T10:27:12.381Z,2.45
2022-11-04T10:29:46.557Z,2.20
2022-11-04T10:32:25.625Z,2.03
2022-11-04T10:35:04.021Z,2.10
2022-11-04T10:37:31.002Z,1.98
2022-11-04T10:40:06.964Z,1.80
2022-11-04T10:42:34.022Z,2.42
2022-11-04T10:45:01.056Z,2.38
2022-11-04T10:47:28.033Z,1.95
2022-11-04T10:50:31.787Z,2.17
2022-11-04T10:53:19.716Z,2.07
2022-11-04T10:55:58.027Z,2.10
2022-11-04T10:58:26.533Z,2.03
2022-11-04T11:00:54.581Z,2.65
2022-11-04T11:03:35.182Z,2.30
2022-11-04T11:06:14.328Z,2.50
2022-11-04T11:08:41.941Z,1.30
2022-11-04T11:11:09.422Z,1.70
2022-11-04T11:13:38.017Z,1.90
2022-11-04T11:16:06.982Z,1.55
2022-11-04T11:18:34.035Z,1.45
2022-11-04T11:21:25.860Z,1.67
2022-11-04T11:23:56.064Z,1.65
2022-11-04T11:26:30.021Z,1.50
2022-11-04T11:29:02.296Z,1.85
2022-11-04T11:31:39.365Z,2.10
2022-11-04T11:34:08.380Z,2.35
2022-11-04T11:36:37.915Z,1.95
2022-11-04T11:39:06.355Z,1.63
2022-11-04T11:41:39.529Z,1.65
2022-11-04T11:44:20.925Z,1.90
2022-11-04T11:46:54.516Z,1.90
2022-11-04T11:49:28.261Z,1.83
2022-11-04T11:51:55.809Z,1.90
2022-11-04T11:54:33.676Z,1.67
2022-11-04T11:57:25.032Z,2.28
2022-11-04T12:02:57.834Z,2.70
2022-11-04T12:11:53.232Z,2.90
2022-11-04T12:14:23.473Z,2.00
2022-11-04T12:16:57.059Z,2.20
2022-11-04T12:19:37.857Z,1.67
2022-11-04T12:22:20.286Z,2.33
2022-11-04T12:24:55.244Z,2.53
2022-11-04T12:27:25.443Z,2.10
2022-11-04T12:30:05.127Z,2.53
2022-11-04T12:32:32.201Z,1.88
2022-11-04T12:35:10.246Z,2.10
2022-11-04T12:37:43.845Z,1.73
2022-11-04T12:40:14.007Z,1.73
2022-11-04T12:42:55.829Z,1.70
2022-11-04T12:45:26.339Z,1.67
2022-11-04T12:47:56.187Z,1.50
2022-11-04T12:50:35.780Z,1.60
2022-11-04T12:53:12.548Z,1.98
2022-11-04T12:55:45.126Z,1.90
2022-11-04T12:58:27.476Z,2.00
2022-11-04T13:00:59.946Z,2.15
2022-11-04T13:03:45.758Z,2.33
2022-11-04T13:06:28.774Z,2.28
2022-11-04T13:09:02.815Z,1.45
2022-11-04T13:11:34.109Z,2.10
2022-11-04T13:14:05.639Z,1.98
2022-11-04T13:16:35.628Z,1.85
2022-11-04T13:19:03.047Z,1.60
2022-11-04T13:21:33.277Z,1.60
2022-11-04T13:24:05.058Z,1.90
2022-11-04T13:26:32.796Z,2.53
2022-11-04T13:29:09.074Z,11.57
2022-11-04T13:31:51.923Z,2.58
2022-11-04T13:34:23.457Z,1.70
2022-11-04T13:37:09.119Z,1.95
2022-11-04T13:39:40.094Z,2.30
2022-11-04T13:42:07.293Z,1.95
2022-11-04T13:44:49.170Z,2.10
2022-11-04T13:47:22.341Z,2.42
2022-11-04T13:49:51.662Z,2.42
2022-11-04T13:52:19.031Z,2.45
2022-11-04T13:54:55.451Z,3.22
2022-11-04T13:57:24.540Z,2.67
2022-11-04T14:00:09.261Z,2.30
2022-11-04T14:02:39.764Z,1.90
2022-11-04T14:05:25.800Z,2.80
2022-11-04T14:08:02.351Z,2.05
2022-11-04T14:10:45.347Z,2.40
2022-11-04T14:13:31.555Z,2.15
2022-11-04T14:16:03.862Z,2.88
2022-11-04T14:18:30.994Z,2.17
2022-11-04T14:21:22.132Z,2.13
2022-11-04T14:24:02.883Z,2.33
2022-11-04T14:26:42.165Z,1.80
2022-11-04T14:29:13.857Z,2.78
2022-11-04T14:31:42.075Z,2.45
2022-11-04T14:34:24.200Z,1.83
2022-11-04T14:36:56.574Z,1.48
2022-11-04T14:39:25.470Z,1.65
2022-11-04T14:41:54.645Z,1.30
2022-11-04T14:44:32.553Z,1.60
2022-11-04T14:47:16.308Z,1.70
2022-11-04T14:49:48.496Z,1.95
2022-11-04T14:52:33.385Z,1.30
2022-11-04T14:55:12.404Z,1.13
2022-11-04T14:57:44.454Z,1.52
2022-11-04T15:00:30.049Z,1.77
2022-11-04T15:03:03.442Z,1.58
2022-11-04T15:05:33.612Z,1.58
2022-11-04T15:08:00.818Z,1.52
2022-11-04T15:10:29.020Z,1.92
2022-11-04T15:13:00.886Z,1.33
2022-11-04T15:15:30.376Z,1.65
2022-11-04T15:18:02.183Z,1.75
2022-11-04T15:20:30.799Z,0.90
2022-11-04T15:22:59.280Z,1.58
2022-11-04T15:25:26.659Z,2.03
2022-11-04T15:27:54.769Z,1.60
2022-11-04T15:30:26.283Z,1.55
2022-11-04T15:32:57.698Z,1.80
2022-11-04T15:35:25.746Z,1.40
2022-11-04T15:37:54.089Z,2.08
2022-11-04T15:40:22.165Z,1.30
2022-11-04T15:42:50.199Z,1.40
2022-11-04T15:45:25.846Z,1.80
2022-11-04T15:48:11.852Z,1.75
2022-11-04T15:50:39.207Z,1.67
2022-11-04T15:53:10.506Z,1.70
2022-11-04T15:55:39.072Z,1.48
2022-11-04T15:58:06.606Z,1.90
2022-11-04T16:00:34.868Z,1.83
2022-11-04T16:03:02.295Z,2.10
2022-11-04T16:05:31.321Z,1.73
2022-11-04T16:08:15.322Z,2.00
2022-11-04T16:10:43.805Z,1.73
2022-11-04T16:13:16.823Z,2.00
2022-11-04T16:15:52.322Z,2.13
2022-11-04T16:18:28.888Z,1.65
2022-11-04T16:20:57.021Z,1.77
2022-11-04T16:23:25.485Z,1.58
2022-11-04T16:26:00.835Z,2.05
2022-11-04T16:28:32.507Z,2.45
2022-11-04T16:31:07.544Z,1.95
2022-11-04T16:33:35.242Z,1.55
2022-11-04T16:36:06.463Z,2.17
2022-11-04T16:38:33.936Z,1.73
2022-11-04T16:41:01.368Z,2.10
2022-11-04T16:43:28.752Z,2.08
2022-11-04T16:45:55.953Z,2.20
2022-11-04T16:48:24.774Z,1.90
2022-11-04T16:50:52.057Z,2.10
2022-11-04T16:53:19.523Z,2.28
2022-11-04T16:55:47.487Z,2.10
2022-11-04T16:58:18.066Z,2.10
2022-11-04T17:00:45.188Z,2.00
2022-11-04T17:03:21.717Z,2.38
2022-11-04T17:05:54.341Z,2.08
2022-11-04T17:08:21.702Z,2.70
2022-11-04T17:10:49.260Z,2.13
2022-11-04T17:13:16.619Z,3.22
2022-11-04T17:15:44.646Z,2.42
2022-11-04T17:18:16.871Z,2.58
2022-11-04T17:20:44.993Z,2.42
2022-11-04T17:23:14.159Z,2.90
2022-11-04T17:25:41.633Z,2.67
2022-11-04T17:28:08.917Z,2.42
2022-11-04T17:30:36.803Z,3.30
2022-11-04T17:33:08.873Z,2.97
2022-11-04T17:35:39.747Z,2.38
2022-11-04T17:38:06.838Z,2.58
2022-11-04T17:40:53.975Z,2.83
2022-11-04T17:43:44.042Z,2.20
2022-11-04T17:46:30.548Z,2.35
2022-11-04T17:48:57.747Z,2.45
2022-11-04T17:51:25.155Z,2.83
2022-11-04T17:53:52.316Z,2.53
2022-11-04T17:56:21.017Z,2.97
2022-11-04T17:58:48.698Z,2.95
2022-11-04T18:01:16.894Z,2.90
2022-11-04T18:03:44.285Z,2.75
2022-11-04T18:06:11.443Z,3.38
2022-11-04T18:08:38.661Z,2.55
2022-11-04T18:11:06.787Z,2.88
2022-11-04T18:13:34.413Z,2.60
2022-11-04T18:16:11.184Z,2.50
2022-11-04T18:18:38.223Z,2.47
2022-11-04T18:21:06.624Z,2.83
2022-11-04T18:23:33.628Z,3.17
2022-11-04T18:26:00.640Z,2.92
2022-11-04T18:28:27.623Z,2.40
2022-11-04T18:30:54.644Z,2.63
2022-11-04T18:33:21.641Z,2.55
2022-11-04T18:35:48.615Z,2.47
2022-11-04T18:38:15.681Z,2.60
2022-11-04T18:40:42.683Z,2.75
2022-11-04T18:43:09.783Z,3.13
2022-11-04T18:45:37.314Z,2.92
2022-11-04T18:48:04.808Z,2.35
2022-11-04T18:50:34.239Z,3.40
2022-11-04T18:53:01.247Z,4.10
2022-11-04T18:55:28.323Z,4.07
2022-11-04T18:57:56.073Z,3.40
2022-11-04T19:00:23.152Z,3.30
2022-11-04T19:02:50.406Z,3.78
2022-11-04T19:05:18.077Z,3.75
2022-11-04T19:07:45.535Z,3.42
2022-11-04T19:10:12.670Z,3.50
2022-11-04T19:12:58.814Z,3.88
2022-11-04T19:15:26.280Z,4.18
2022-11-04T19:17:53.353Z,4.18
2022-11-04T19:20:20.419Z,3.75
2022-11-04T19:22:47.465Z,4.15
2022-11-04T19:25:14.538Z,4.05
2022-11-04T19:27:42.191Z,5.35
2022-11-04T19:30:09.711Z,5.70
2022-11-04T19:32:36.974Z,5.20
2022-11-04T19:35:04.069Z,4.65
2022-11-04T19:37:31.360Z,4.50
2022-11-04T19:39:58.438Z,4.70
2022-11-04T19:42:44.232Z,3.70
2022-11-04T19:45:11.238Z,3.55
2022-11-04T19:47:38.260Z,3.15
2022-11-04T19:50:05.914Z,3.15
2022-11-04T19:52:32.977Z,3.58
2022-11-04T19:54:59.974Z,3.38
2022-11-04T19:57:27.193Z,3.58
2022-11-04T19:59:54.175Z,3.72
2022-11-04T20:02:21.712Z,3.70
2022-11-04T20:04:50.119Z,4.05
2022-11-04T20:07:17.192Z,4.07
2022-11-04T20:09:44.213Z,4.15
2022-11-04T20:12:30.025Z,4.50
2022-11-04T20:14:57.518Z,5.43
2022-11-04T20:17:24.560Z,5.13
2022-11-04T20:19:51.651Z,5.15
2022-11-04T20:22:18.731Z,5.22
2022-11-04T20:24:45.896Z,4.38
2022-11-04T20:27:15.113Z,4.57
2022-11-04T20:29:42.935Z,4.60
2022-11-04T20:32:10.090Z,5.22
2022-11-04T20:34:37.085Z,4.82
2022-11-04T20:37:04.141Z,4.13
2022-11-04T20:39:31.170Z,4.35
2022-11-04T20:41:58.317Z,3.63
2022-11-04T20:44:25.448Z,4.20
2022-11-04T20:46:52.458Z,4.80
2022-11-04T20:49:19.463Z,3.70
2022-11-04T20:51:53.577Z,4.05
2022-11-04T20:54:22.371Z,3.42
2022-11-04T20:56:49.424Z,4.40
2022-11-04T20:59:18.145Z,3.88
2022-11-04T21:01:46.321Z,4.20
2022-11-04T21:04:20.683Z,4.32
2022-11-04T21:06:48.558Z,4.20
2022-11-04T21:09:16.587Z,3.72
2022-11-04T21:11:43.928Z,4.32
2022-11-04T21:14:12.880Z,4.45
2022-11-04T21:16:39.934Z,4.97
2022-11-04T21:19:07.992Z,4.85
2022-11-04T21:21:35.084Z,4.28
2022-11-04T21:24:06.439Z,4.18
2022-11-04T21:26:35.095Z,4.15
2022-11-04T21:29:03.551Z,3.90
2022-11-04T21:31:31.620Z,3.33
2022-11-04T21:33:58.654Z,3.35
2022-11-04T21:36:25.682Z,3.65
2022-11-04T21:38:52.738Z,3.28
2022-11-04T21:41:28.060Z,2.97
2022-11-04T21:43:59.449Z,3.00
2022-11-04T21:46:26.902Z,2.55
2022-11-04T21:48:54.111Z,3.10
2022-11-04T21:51:22.897Z,3.38
2022-11-04T21:53:49.988Z,2.22
2022-11-04T21:56:17.132Z,3.00
2022-11-04T21:58:44.274Z,2.42
2022-11-04T22:01:13.329Z,2.90
2022-11-04T22:03:40.607Z,2.35
2022-11-04T22:06:08.744Z,2.92
2022-11-04T22:08:35.779Z,2.40
2022-11-04T22:11:10.055Z,2.65
2022-11-04T22:13:37.432Z,2.13
2022-11-04T22:16:14.489Z,2.78
2022-11-04T22:18:42.041Z,2.63
2022-11-04T22:21:10.659Z,2.88
2022-11-04T22:23:38.216Z,3.03
2022-11-04T22:26:07.406Z,2.90
2022-11-04T22:28:34.443Z,3.33
2022-11-04T22:31:07.498Z,2.90
2022-11-04T22:33:34.617Z,2.27
2022-11-04T22:36:01.676Z,2.92
2022-11-04T22:38:28.709Z,2.72
2022-11-04T22:40:57.146Z,2.85
2022-11-04T22:43:24.930Z,3.10
2022-11-04T22:45:52.755Z,2.60
2022-11-04T22:48:19.867Z,2.35
2022-11-04T22:50:47.322Z,2.30
2022-11-04T22:53:14.887Z,3.20
2022-11-04T22:55:41.902Z,2.67
2022-11-04T22:58:08.933Z,2.40
2022-11-04T23:00:35.935Z,3.03
2022-11-04T23:03:03.327Z,2.58
2022-11-04T23:05:32.236Z,2.03
2022-11-04T23:08:00.210Z,2.45
2022-11-04T23:10:56.912Z,2.35
2022-11-04T23:13:42.840Z,2.30
2022-11-04T23:16:30.974Z,2.08
2022-11-04T23:18:58.108Z,2.33
2022-11-04T23:21:44.195Z,2.38
2022-11-04T23:24:29.995Z,2.22
2022-11-04T23:26:57.220Z,2.85
2022-11-04T23:29:43.071Z,2.38
2022-11-04T23:32:10.097Z,2.10
2022-11-04T23:34:55.729Z,2.42
2022-11-04T23:37:22.756Z,2.33
2022-11-04T23:39:50.354Z,2.20
2022-11-04T23:42:18.999Z,2.58
2022-11-04T23:45:11.790Z,2.90
2022-11-04T23:48:04.288Z,2.33
2022-11-04T23:50:51.227Z,2.10
2022-11-04T23:53:38.282Z,1.92
2022-11-04T23:56:24.839Z,2.17
2022-11-04T23:59:10.334Z,2.60
